Time;durP1;ratioP1;P1;durP2;ratioP2;P2;SDS_P1;SDS_P2;PMS_P1;PMS_P2;Temp;Humidity;BMP_temperature;BMP_pressure;BME280_temperature;BME280_humidity;BME280_pressure;Samples;Min_cycle;Max_cycle;Signal;HPM_P1;HPM_P2
2023/11/12 00:02:24;;;;;;;42.73;20.97;;;;;;;6.33;100.00;99852.38;4999032;28;20522;-73
2023/11/12 00:04:49;;;;;;;56.03;20.30;;;;;;;6.38;100.00;99848.44;4992306;28;20031;-73
2023/11/12 00:07:15;;;;;;;41.73;19.53;;;;;;;6.38;100.00;99848.44;5060219;28;20502;-73
2023/11/12 00:09:40;;;;;;;36.33;17.77;;;;;;;6.28;100.00;99843.25;4997567;28;20276;-73
2023/11/12 00:12:07;;;;;;;40.42;19.65;;;;;;;6.17;100.00;99835.56;4965104;28;20046;-73
2023/11/12 00:14:33;;;;;;;37.33;16.27;;;;;;;6.16;100.00;99845.34;4962693;28;20136;-73
2023/11/12 00:16:58;;;;;;;39.65;17.27;;;;;;;6.16;100.00;99837.38;4973832;28;20129;-74
2023/11/12 00:19:23;;;;;;;41.97;18.93;;;;;;;5.98;100.00;99841.91;5008611;28;20059;-73
2023/11/12 00:21:49;;;;;;;45.87;20.73;;;;;;;6.19;100.00;99854.81;4960781;28;20038;-73
2023/11/12 00:24:16;;;;;;;44.77;19.60;;;;;;;6.05;100.00;99845.59;4986930;28;20288;-73
2023/11/12 00:26:41;;;;;;;59.35;22.88;;;;;;;6.09;100.00;99861.03;5001266;28;20057;-73
2023/11/12 00:29:07;;;;;;;51.03;22.40;;;;;;;6.22;100.00;99855.31;4979611;28;20510;-73
2023/11/12 00:31:32;;;;;;;51.87;21.87;;;;;;;6.20;100.00;99862.56;4995660;28;20314;-74
2023/11/12 00:33:58;;;;;;;57.50;20.98;;;;;;;5.93;100.00;99845.81;4984996;28;20297;-73
2023/11/12 00:36:24;;;;;;;55.05;22.38;;;;;;;5.80;100.00;99850.66;5034876;28;20024;-73
2023/11/12 00:38:50;;;;;;;52.65;22.67;;;;;;;5.98;100.00;99868.41;5011761;28;20467;-73
2023/11/12 00:41:19;;;;;;;53.78;23.00;;;;;;;5.95;100.00;99866.03;4967556;28;20074;-73
2023/11/12 00:43:45;;;;;;;55.22;23.17;;;;;;;6.02;100.00;99870.59;4965078;28;20027;-73
2023/11/12 00:46:11;;;;;;;50.75;22.17;;;;;;;6.04;100.00;99873.91;4984020;28;20395;-73
2023/11/12 00:48:37;;;;;;;49.13;21.70;;;;;;;5.89;100.00;99864.81;4993526;28;20034;-73
2023/11/12 00:51:03;;;;;;;;;;;;;;;5.94;100.00;99870.50;4979902;28;20142;-74
2023/11/12 00:53:30;;;;;;;47.83;18.83;;;;;;;5.93;100.00;99868.81;4994667;28;20445;-73
2023/11/12 00:55:59;;;;;;;45.42;20.42;;;;;;;5.92;100.00;99875.94;4966714;28;20494;-73
2023/11/12 00:58:25;;;;;;;44.50;21.38;;;;;;;6.00;100.00;99869.06;5034430;28;20369;-73
2023/11/12 01:00:52;;;;;;;43.60;20.90;;;;;;;6.14;100.00;99881.75;4977772;28;20065;-73
2023/11/12 01:03:17;;;;;;;42.85;19.40;;;;;;;6.21;100.00;99868.72;5017150;28;20034;-73
2023/11/12 01:05:43;;;;;;;53.05;22.95;;;;;;;6.07;100.00;99863.00;5002198;28;20037;-73
2023/11/12 01:08:08;;;;;;;41.00;20.33;;;;;;;6.23;100.00;99870.22;4968248;28;20047;-73
2023/11/12 01:10:34;;;;;;;44.17;19.08;;;;;;;6.21;100.00;99853.66;4980170;28;20031;-73
2023/11/12 01:12:59;;;;;;;43.72;19.58;;;;;;;6.26;100.00;99861.13;4966262;28;20037;-73
2023/11/12 01:15:26;;;;;;;38.07;18.47;;;;;;;6.18;100.00;99856.63;4978458;28;20032;-74
2023/11/12 01:17:52;;;;;;;41.38;18.92;;;;;;;6.25;100.00;99859.47;4964946;28;20270;-73
2023/11/12 01:20:17;;;;;;;42.13;19.13;;;;;;;6.28;100.00;99857.34;4975414;28;20046;-74
2023/11/12 01:22:42;;;;;;;43.33;18.13;;;;;;;6.10;100.00;99840.66;4981911;28;20030;-73
2023/11/12 01:25:08;;;;;;;40.53;18.83;;;;;;;6.07;100.00;99847.09;4974743;28;20046;-73
2023/11/12 01:27:33;;;;;;;45.00;18.25;;;;;;;6.13;100.00;99843.84;5038788;28;20033;-73
2023/11/12 01:29:59;;;;;;;44.37;19.17;;;;;;;5.97;100.00;99837.56;4997208;28;20036;-74
2023/11/12 01:32:25;;;;;;;39.95;19.77;;;;;;;6.11;100.00;99844.94;5033109;28;20154;-73
2023/11/12 01:34:51;;;;;;;42.05;16.60;;;;;;;6.27;100.00;99853.00;5032213;28;20043;-74
2023/11/12 01:37:16;;;;;;;38.03;18.25;;;;;;;6.23;100.00;99841.06;5049472;28;20039;-73
2023/11/12 01:39:42;;;;;;;35.95;17.00;;;;;;;6.01;100.00;99826.50;5032048;28;20039;-74
2023/11/12 01:42:11;;;;;;;40.83;17.23;;;;;;;6.24;100.00;99837.44;4990321;28;20365;-74
2023/11/12 01:44:40;;;;;;;36.78;17.30;;;;;;;6.08;100.00;99822.25;5005251;28;20035;-73
2023/11/12 01:47:06;;;;;;;31.30;17.95;;;;;;;6.22;100.00;99831.44;5017768;28;20021;-73
2023/11/12 01:49:34;;;;;;;31.27;14.18;;;;;;;6.17;100.00;99823.13;4983932;28;20027;-73
2023/11/12 01:52:00;;;;;;;34.42;16.05;;;;;;;6.06;100.00;99808.34;4966751;28;20025;-73
2023/11/12 01:54:27;;;;;;;35.10;15.65;;;;;;;6.10;100.00;99814.16;4965149;28;20027;-73
2023/11/12 01:56:55;;;;;;;29.60;15.02;;;;;;;6.07;100.00;99806.53;4957342;28;20147;-74
2023/11/12 01:59:24;;;;;;;33.63;16.10;;;;;;;6.01;100.00;99804.50;4966763;28;20109;-74
2023/11/12 02:01:50;;;;;;;33.17;16.42;;;;;;;6.14;100.00;99810.22;4973126;28;20045;-74
2023/11/12 02:04:17;;;;;;;34.38;18.27;;;;;;;6.05;100.00;99813.78;4987058;28;20509;-74
2023/11/12 02:06:43;;;;;;;33.90;17.10;;;;;;;6.07;100.00;99823.25;4973020;28;20628;-74
2023/11/12 02:09:10;;;;;;;39.40;17.80;;;;;;;6.21;100.00;99831.63;4969715;28;20160;-74
2023/11/12 02:11:39;;;;;;;37.10;16.30;;;;;;;6.17;100.00;99830.25;5048162;28;20123;-74
2023/11/12 02:14:07;;;;;;;31.05;14.07;;;;;;;6.16;100.00;99829.44;4980893;28;20073;-74
2023/11/12 02:16:32;;;;;;;29.13;14.98;;;;;;;5.96;100.00;99818.19;5065236;28;20025;-74
2023/11/12 02:18:58;;;;;;;31.67;13.73;;;;;;;5.63;100.00;99807.34;5040868;28;20100;-74
2023/11/12 02:21:24;;;;;;;44.10;18.75;;;;;;;5.52;100.00;99820.81;4979630;28;20166;-74
2023/11/12 02:23:49;;;;;;;;;;;;;;;5.70;100.00;99839.34;5036684;28;20035;-74
2023/11/12 02:26:15;;;;;;;46.50;17.55;;;;;;;5.66;100.00;99835.31;4965352;28;19912;-74
2023/11/12 02:28:41;;;;;;;47.25;18.27;;;;;;;5.53;100.00;99826.97;4969368;28;20479;-74
2023/11/12 02:31:06;;;;;;;34.03;15.43;;;;;;;5.68;100.00;99846.59;4997399;28;20084;-74
2023/11/12 02:33:32;;;;;;;36.08;17.13;;;;;;;5.74;100.00;99853.94;4957268;28;20041;-74
2023/11/12 02:35:58;;;;;;;40.65;16.65;;;;;;;5.55;100.00;99854.09;4963189;28;20133;-74
2023/11/12 02:38:24;;;;;;;40.65;16.15;;;;;;;5.60;100.00;99851.84;5046694;28;20479;-74
2023/11/12 02:40:51;;;;;;;37.65;16.33;;;;;;;5.67;100.00;99863.50;4997638;28;20037;-74
2023/11/12 02:43:17;;;;;;;38.22;15.88;;;;;;;5.50;100.00;99846.59;5010928;28;20088;-75
2023/11/12 02:45:44;;;;;;;34.53;15.00;;;;;;;5.56;100.00;99853.94;4979139;28;20041;-74
2023/11/12 02:48:10;;;;;;;32.70;14.30;;;;;;;5.55;100.00;99851.44;5047666;28;20021;-74
2023/11/12 02:50:36;;;;;;;34.45;14.10;;;;;;;5.59;100.00;99853.63;4946656;28;20053;-74
2023/11/12 02:53:05;;;;;;;26.38;11.18;;;;;;;5.33;100.00;99836.84;5007037;28;20059;-74
2023/11/12 02:55:32;;;;;;;33.47;15.32;;;;;;;5.28;100.00;99846.06;4982619;28;20035;-74
2023/11/12 02:57:59;;;;;;;30.35;13.35;;;;;;;5.34;100.00;99849.94;5006066;28;20412;-74
2023/11/12 03:00:27;;;;;;;30.73;13.75;;;;;;;5.52;100.00;99859.69;5064595;28;20450;-74
2023/11/12 03:03:00;;;;;;;28.05;12.30;;;;;;;5.59;100.00;99858.94;5063830;28;20897;-74
2023/11/12 03:05:27;;;;;;;29.35;13.32;;;;;;;5.53;100.00;99833.06;4978985;28;20419;-74
2023/11/12 03:07:52;;;;;;;28.23;12.77;;;;;;;5.57;100.00;99847.69;5040420;28;20020;-74
2023/11/12 03:10:18;;;;;;;24.45;10.98;;;;;;;5.54;100.00;99833.91;4995578;28;20062;-74
2023/11/12 03:12:43;;;;;;;28.30;12.63;;;;;;;5.48;100.00;99830.88;4972906;28;20027;-74
2023/11/12 03:15:11;;;;;;;28.98;11.38;;;;;;;5.38;100.00;99827.47;4947792;28;20061;-75
2023/11/12 03:17:37;;;;;;;23.20;11.45;;;;;;;5.52;100.00;99835.88;4977644;28;20040;-74
2023/11/12 03:20:04;;;;;;;24.40;11.38;;;;;;;5.45;100.00;99825.03;4991568;28;20061;-74
2023/11/12 03:22:33;;;;;;;26.48;12.88;;;;;;;5.64;100.00;99837.28;5012826;28;20605;-74
2023/11/12 03:25:04;;;;;;;24.20;13.32;;;;;;;5.72;100.00;99837.38;5014485;28;20044;-74
2023/11/12 03:27:31;;;;;;;22.17;11.13;;;;;;;5.71;100.00;99831.25;5000386;28;20029;-74
2023/11/12 03:29:56;;;;;;;24.08;10.88;;;;;;;5.53;100.00;99819.00;5047296;28;20022;-74
2023/11/12 03:32:23;;;;;;;24.83;11.80;;;;;;;5.58;100.00;99837.91;4960388;28;20086;-74
2023/11/12 03:34:50;;;;;;;24.10;11.97;;;;;;;5.66;100.00;99841.44;5064278;28;20435;-74
2023/11/12 03:37:20;;;;;;;23.00;12.15;;;;;;;5.56;100.00;99822.16;5063950;28;20271;-75
2023/11/12 03:39:47;;;;;;;25.08;11.35;;;;;;;5.60;100.00;99828.00;5026711;28;20470;-74
2023/11/12 03:42:13;;;;;;;26.40;10.45;;;;;;;5.76;100.00;99829.94;4990064;28;20097;-74
2023/11/12 03:44:38;;;;;;;28.17;12.05;;;;;;;5.56;100.00;99808.94;5036706;28;20059;-74
2023/11/12 03:47:04;;;;;;;26.10;12.37;;;;;;;5.68;100.00;99822.75;4988134;28;20042;-74
2023/11/12 03:49:30;;;;;;;31.42;13.68;;;;;;;5.56;100.00;99819.53;5064285;28;20391;-74
2023/11/12 03:51:55;;;;;;;26.20;12.73;;;;;;;5.48;100.00;99815.00;5022068;28;20031;-74
2023/11/12 03:54:23;;;;;;;33.83;13.88;;;;;;;5.57;100.00;99815.91;4975458;28;20533;-74
2023/11/12 03:56:49;;;;;;;26.33;13.30;;;;;;;5.53;100.00;99816.38;5031360;28;20091;-74
2023/11/12 03:59:14;;;;;;;27.23;14.03;;;;;;;5.50;100.00;99807.75;5036482;28;20485;-74
2023/11/12 04:01:39;;;;;;;28.10;13.05;;;;;;;5.36;100.00;99797.69;5018674;28;20403;-75
2023/11/12 04:04:06;;;;;;;36.00;15.67;;;;;;;5.54;100.00;99807.44;4970771;28;20092;-74
2023/11/12 04:06:32;;;;;;;30.17;14.68;;;;;;;5.43;100.00;99800.53;5050487;28;20036;-74
2023/11/12 04:08:57;;;;;;;31.95;14.45;;;;;;;5.39;100.00;99788.63;5032596;28;20088;-75
2023/11/12 04:11:23;;;;;;;31.70;15.47;;;;;;;5.31;100.00;99796.47;5012930;28;20060;-74
2023/11/12 04:13:49;;;;;;;40.05;17.05;;;;;;;5.09;100.00;99798.59;5048469;28;20563;-75
2023/11/12 04:16:14;;;;;;;35.90;16.03;;;;;;;5.05;100.00;99810.44;5028688;28;20122;-74
2023/11/12 04:18:40;;;;;;;39.70;19.17;;;;;;;5.07;100.00;99817.25;5015883;28;20061;-74
2023/11/12 04:21:05;;;;;;;41.67;17.80;;;;;;;5.12;100.00;99823.91;5019575;28;20296;-74
2023/11/12 04:23:31;;;;;;;47.40;21.67;;;;;;;5.03;100.00;99831.78;4967110;28;20061;-74
2023/11/12 04:25:57;;;;;;;51.38;20.90;;;;;;;5.22;100.00;99845.84;4964595;28;20365;-74
2023/11/12 04:28:26;;;;;;;64.82;25.77;;;;;;;4.76;100.00;99822.03;4981546;28;20085;-74
2023/11/12 04:30:52;;;;;;;62.85;24.80;;;;;;;4.84;100.00;99843.28;5027491;28;20071;-74
2023/11/12 04:33:19;;;;;;;70.32;24.70;;;;;;;4.88;100.00;99849.13;5002938;28;20442;-74
2023/11/12 04:35:47;;;;;;;74.25;25.08;;;;;;;4.99;100.00;99856.84;5071899;28;20195;-74
2023/11/12 04:38:12;;;;;;;57.65;21.90;;;;;;;4.53;100.00;99824.22;5036126;28;20661;-74
2023/11/12 04:40:39;;;;;;;53.55;21.70;;;;;;;4.75;100.00;99844.19;5037180;28;20028;-74
2023/11/12 04:43:05;;;;;;;61.35;23.40;;;;;;;4.74;100.00;99837.22;4985541;28;20063;-74
2023/11/12 04:45:31;;;;;;;72.68;21.60;;;;;;;4.48;100.00;99836.25;5023300;28;20053;-74
2023/11/12 04:47:56;;;;;;;56.15;21.33;;;;;;;4.57;100.00;99840.66;4981631;28;20027;-75
2023/11/12 04:50:21;;;;;;;78.53;27.23;;;;;;;4.39;100.00;99837.94;4984348;28;20031;-74
2023/11/12 04:52:47;;;;;;;69.97;21.80;;;;;;;4.52;100.00;99856.94;4946255;28;20278;-74
2023/11/12 04:55:12;;;;;;;74.65;25.70;;;;;;;4.61;100.00;99871.09;4967113;28;20759;-74
2023/11/12 04:57:38;;;;;;;72.97;24.47;;;;;;;4.72;100.00;99875.38;4964121;28;20103;-73
2023/11/12 05:00:05;;;;;;;73.90;21.42;;;;;;;4.55;100.00;99869.03;5006254;28;20030;-74
2023/11/12 05:02:30;;;;;;;100.07;20.35;;;;;;;4.15;100.00;99855.09;4963815;28;20117;-74
2023/11/12 05:04:55;;;;;;;146.27;25.27;;;;;;;4.32;100.00;99881.78;5045730;28;20116;-74
2023/11/12 05:07:21;;;;;;;75.00;18.33;;;;;;;4.22;100.00;99873.88;4985531;28;20339;-75
2023/11/12 05:09:46;;;;;;;77.10;19.70;;;;;;;4.22;100.00;99882.63;4996519;28;20099;-74
2023/11/12 05:12:14;;;;;;;129.27;22.67;;;;;;;4.09;100.00;99878.63;5008073;28;20046;-74
2023/11/12 05:14:39;;;;;;;68.35;18.45;;;;;;;4.11;100.00;99892.53;4960428;28;20137;-74
2023/11/12 05:17:05;;;;;;;135.05;22.17;;;;;;;4.20;100.00;99905.72;4965073;28;20136;-74
2023/11/12 05:19:31;;;;;;;68.78;17.98;;;;;;;4.41;100.00;99909.97;4967425;28;20042;-74
2023/11/12 05:21:56;;;;;;;86.43;19.45;;;;;;;4.31;100.00;99902.09;4965151;28;20031;-74
2023/11/12 05:24:21;;;;;;;70.63;17.80;;;;;;;4.41;100.00;99904.69;4992787;28;20135;-74
2023/11/12 05:26:47;;;;;;;65.50;17.73;;;;;;;4.38;100.00;99905.81;5018003;28;20277;-74
2023/11/12 05:29:15;;;;;;;51.50;15.50;;;;;;;4.45;100.00;99890.22;5006916;28;20042;-74
2023/11/12 05:31:40;;;;;;;51.70;14.93;;;;;;;4.52;100.00;99901.03;5020017;28;20089;-75
2023/11/12 05:34:05;;;;;;;100.33;18.90;;;;;;;4.40;100.00;99887.16;5009941;28;20076;-74
2023/11/12 05:36:31;;;;;;;69.10;15.37;;;;;;;4.37;100.00;99893.56;4964541;28;20325;-74
2023/11/12 05:38:56;;;;;;;52.73;16.97;;;;;;;4.55;100.00;99898.94;4961529;28;20336;-75
2023/11/12 05:41:22;;;;;;;62.83;15.35;;;;;;;4.66;100.00;99903.22;4973135;28;20030;-74
2023/11/12 05:43:47;;;;;;;91.80;19.70;;;;;;;4.70;100.00;99899.31;4989822;28;20868;-73
2023/11/12 05:46:13;;;;;;;125.93;18.57;;;;;;;4.38;100.00;99879.38;4948243;28;20314;-73
2023/11/12 05:48:39;;;;;;;110.68;18.55;;;;;;;4.23;100.00;99873.72;4976792;28;20384;-74
2023/11/12 05:51:05;;;;;;;70.35;18.35;;;;;;;4.36;100.00;99891.09;4962431;28;20027;-74
2023/11/12 05:53:31;;;;;;;98.22;16.20;;;;;;;4.26;100.00;99900.81;4976183;28;20030;-74
2023/11/12 05:55:56;;;;;;;69.68;18.20;;;;;;;4.41;100.00;99902.06;4985973;28;20098;-74
2023/11/12 05:58:22;;;;;;;68.80;15.70;;;;;;;4.53;100.00;99903.53;4973623;28;20046;-73
2023/11/12 06:00:47;;;;;;;151.20;19.88;;;;;;;4.37;100.00;99898.84;5018088;28;20024;-75
2023/11/12 06:03:12;;;;;;;101.37;18.27;;;;;;;4.13;100.00;99890.56;4977518;28;20129;-73
2023/11/12 06:05:39;;;;;;;84.05;19.05;;;;;;;4.24;100.00;99914.19;4978335;28;20036;-72
2023/11/12 06:08:05;;;;;;;85.97;16.25;;;;;;;4.03;100.00;99901.16;4964102;28;20068;-74
2023/11/12 06:10:31;;;;;;;79.03;16.50;;;;;;;4.35;100.00;99921.13;4979298;28;20036;-73
2023/11/12 06:12:57;;;;;;;;;;;;;;;4.54;100.00;99929.00;5005580;28;20274;-74
2023/11/12 06:15:26;;;;;;;134.05;19.55;;;;;;;4.36;100.00;99917.50;4990840;28;20292;-74
2023/11/12 06:17:52;;;;;;;152.15;21.42;;;;;;;4.20;100.00;99913.63;4968539;28;20027;-75
2023/11/12 06:20:18;;;;;;;100.47;18.75;;;;;;;4.26;100.00;99917.53;4969955;28;20038;-73
2023/11/12 06:22:43;;;;;;;76.28;15.73;;;;;;;4.31;100.00;99931.16;4974450;28;20088;-73
2023/11/12 06:25:11;;;;;;;53.27;14.00;;;;;;;4.33;100.00;99925.69;4965873;28;20129;-74
2023/11/12 06:27:39;;;;;;;112.22;16.58;;;;;;;4.31;100.00;99932.94;4995155;28;20031;-74
2023/11/12 06:30:06;;;;;;;121.43;19.02;;;;;;;4.30;100.00;99934.75;4964085;28;20548;-74
2023/11/12 06:32:31;;;;;;;55.50;14.48;;;;;;;4.22;100.00;99926.72;4963678;28;20554;-74
2023/11/12 06:34:56;;;;;;;97.37;19.03;;;;;;;4.19;100.00;99925.19;4981171;28;20118;-74
2023/11/12 06:37:22;;;;;;;72.20;16.25;;;;;;;4.40;100.00;99934.72;4982430;28;20038;-74
2023/11/12 06:39:47;;;;;;;86.70;19.92;;;;;;;4.55;100.00;99927.19;4960897;28;20027;-73
2023/11/12 06:42:13;;;;;;;88.18;17.27;;;;;;;4.40;100.00;99925.00;4983349;28;20403;-73
2023/11/12 06:44:38;;;;;;;92.87;19.17;;;;;;;4.42;100.00;99916.91;5016258;28;20439;-73
2023/11/12 06:47:04;;;;;;;106.13;19.52;;;;;;;4.31;100.00;99919.72;5044862;28;20033;-73
2023/11/12 06:49:32;;;;;;;110.93;19.83;;;;;;;4.47;100.00;99927.88;5013586;28;20477;-74
2023/11/12 06:51:58;;;;;;;89.32;17.33;;;;;;;4.41;100.00;99928.47;4993516;28;20037;-75
2023/11/12 06:54:24;;;;;;;79.28;18.35;;;;;;;4.43;100.00;99929.19;4975030;28;20035;-74
2023/11/12 06:56:50;;;;;;;121.38;21.67;;;;;;;4.55;100.00;99937.78;4985235;28;20046;-74
2023/11/12 06:59:15;;;;;;;108.30;19.65;;;;;;;4.36;100.00;99920.97;4985134;28;20034;-74
2023/11/12 07:01:41;;;;;;;67.40;16.67;;;;;;;4.70;100.00;99938.13;5009373;28;20090;-74
2023/11/12 07:04:06;;;;;;;59.05;17.15;;;;;;;4.90;100.00;99938.91;4964094;28;20343;-74
2023/11/12 07:06:33;;;;;;;108.20;21.10;;;;;;;4.46;100.00;99920.94;4963567;28;20123;-74
2023/11/12 07:08:58;;;;;;;76.88;17.17;;;;;;;4.55;100.00;99933.31;4975335;28;20121;-74
2023/11/12 07:11:24;;;;;;;59.08;16.17;;;;;;;4.51;100.00;99945.13;4973169;28;20119;-74
2023/11/12 07:13:50;;;;;;;65.13;18.83;;;;;;;4.57;100.00;99941.94;5002461;28;20730;-74
2023/11/12 07:16:16;;;;;;;68.18;18.33;;;;;;;4.79;100.00;99950.50;5000406;28;20077;-75
2023/11/12 07:18:42;;;;;;;74.60;17.85;;;;;;;4.85;100.00;99949.94;5005897;28;20020;-74
2023/11/12 07:21:12;;;;;;;61.97;16.33;;;;;;;4.75;100.00;99934.09;4978596;28;20050;-76
2023/11/12 07:23:38;;;;;;;65.57;18.00;;;;;;;4.83;100.00;99951.88;4999179;28;20034;-74
2023/11/12 07:26:04;;;;;;;71.93;18.38;;;;;;;4.87;100.00;99955.91;4985175;28;20084;-74
2023/11/12 07:28:29;;;;;;;56.72;16.35;;;;;;;5.03;100.00;99957.91;4977641;28;20040;-74
2023/11/12 07:30:55;;;;;;;53.33;16.48;;;;;;;5.11;100.00;99962.50;4993614;28;20114;-76
2023/11/12 07:33:21;;;;;;;53.58;15.80;;;;;;;4.93;100.00;99952.66;5002446;28;20080;-74
2023/11/12 07:35:48;;;;;;;51.70;17.17;;;;;;;4.97;100.00;99951.41;4969723;28;20054;-74
2023/11/12 07:38:14;;;;;;;54.63;17.27;;;;;;;4.93;100.00;99951.84;4965997;28;20162;-74
2023/11/12 07:40:41;;;;;;;45.85;15.15;;;;;;;5.07;100.00;99957.47;4973505;28;20126;-75
2023/11/12 07:43:07;;;;;;;51.50;17.08;;;;;;;5.31;100.00;99969.34;4963404;28;20077;-74
2023/11/12 07:45:33;;;;;;;48.45;14.55;;;;;;;4.93;100.00;99947.38;4978771;28;20040;-75
2023/11/12 07:47:59;;;;;;;54.40;15.13;;;;;;;5.02;100.00;99956.25;4978356;28;20395;-74
2023/11/12 07:50:24;;;;;;;44.08;14.45;;;;;;;4.98;100.00;99947.75;5005061;28;20023;-73
2023/11/12 07:52:49;;;;;;;56.10;15.55;;;;;;;4.93;100.00;99950.03;5000426;28;20455;-74
2023/11/12 07:55:15;;;;;;;47.63;14.43;;;;;;;5.15;100.00;99961.19;5030768;28;20031;-73
2023/11/12 07:57:40;;;;;;;46.23;13.27;;;;;;;5.08;100.00;99953.88;5064282;28;20032;-74
2023/11/12 08:00:06;;;;;;;47.93;14.50;;;;;;;5.18;100.00;99961.75;4983418;28;20066;-75
2023/11/12 08:02:39;;;;;;;40.58;13.38;;;;;;;5.26;100.00;99958.38;4996365;28;20739;-74
2023/11/12 08:05:07;;;;;;;46.60;14.90;;;;;;;5.10;100.00;99942.28;4985075;28;20041;-75
2023/11/12 08:07:33;;;;;;;44.13;14.27;;;;;;;5.25;100.00;99948.78;5063235;28;20036;-76
2023/11/12 08:09:58;;;;;;;49.67;15.43;;;;;;;5.10;100.00;99948.41;4988846;28;20039;-75
2023/11/12 08:12:23;;;;;;;45.13;14.20;;;;;;;5.23;100.00;99948.91;5054944;28;20028;-74
2023/11/12 08:14:49;;;;;;;46.10;15.33;;;;;;;5.35;100.00;99962.78;5000130;28;20093;-74
2023/11/12 08:17:14;;;;;;;45.43;15.03;;;;;;;5.32;100.00;99952.50;4964547;28;20632;-75
2023/11/12 08:19:40;;;;;;;35.17;12.38;;;;;;;5.52;100.00;99960.31;4973929;28;20027;-74
2023/11/12 08:22:06;;;;;;;56.35;15.85;;;;;;;5.11;100.00;99943.97;4962251;28;20086;-75
2023/11/12 08:24:31;;;;;;;49.30;15.77;;;;;;;5.30;100.00;99954.44;4976356;28;20424;-74
2023/11/12 08:26:57;;;;;;;39.33;14.02;;;;;;;5.51;100.00;99948.88;4962802;28;20063;-75
2023/11/12 08:29:22;;;;;;;53.70;14.80;;;;;;;5.31;100.00;99961.41;5000483;28;20069;-75
2023/11/12 08:31:48;;;;;;;44.73;14.50;;;;;;;5.57;100.00;99968.63;4999123;28;20037;-76
2023/11/12 08:34:13;;;;;;;48.73;14.63;;;;;;;5.68;100.00;99971.91;5003612;28;20048;-74
2023/11/12 08:36:39;;;;;;;53.50;14.33;;;;;;;5.66;100.00;99965.09;5003036;28;20510;-74
2023/11/12 08:39:04;;;;;;;47.97;14.38;;;;;;;5.89;100.00;99970.78;5042462;28;20036;-74
2023/11/12 08:41:49;;;;;;;41.38;14.35;;;;;;;5.78;100.00;99947.16;5020871;28;20069;-75
2023/11/12 08:44:33;;;;;;;50.10;16.58;;;;;;;5.72;100.00;99948.59;4979411;28;20528;-74
2023/11/12 08:46:59;;;;;;;48.27;14.30;;;;;;;5.89;100.00;99958.38;4980074;28;20073;-74
2023/11/12 08:49:25;;;;;;;37.70;16.33;;;;;;;6.01;100.00;99952.88;4990374;28;20552;-74
2023/11/12 08:51:51;;;;;;;;;;;;;;;5.78;100.00;99945.34;5069027;28;20581;-75
2023/11/12 08:54:16;;;;;;;53.17;15.07;;;;;;;5.94;100.00;99952.63;4999328;28;19910;-74
2023/11/12 08:56:41;;;;;;;47.40;15.53;;;;;;;6.05;100.00;99955.06;4993220;28;20031;-75
2023/11/12 08:59:07;;;;;;;45.30;15.13;;;;;;;6.03;100.00;99951.72;4965269;28;20022;-74
2023/11/12 09:01:36;;;;;;;41.58;14.63;;;;;;;6.13;100.00;99956.94;5034969;28;20040;-76
2023/11/12 09:04:01;;;;;;;38.58;13.70;;;;;;;6.34;100.00;99961.91;4990033;28;20026;-75
2023/11/12 09:06:26;;;;;;;35.80;14.07;;;;;;;6.21;100.00;99953.56;4990584;28;20035;-74
2023/11/12 09:08:52;;;;;;;33.67;11.70;;;;;;;6.38;100.00;99955.31;4998693;28;20024;-75
2023/11/12 09:11:17;;;;;;;34.95;14.25;;;;;;;6.42;100.00;99959.34;4995740;28;20023;-75
2023/11/12 09:13:43;;;;;;;37.70;14.83;;;;;;;6.55;100.00;99969.53;5026305;28;20071;-75
2023/11/12 09:16:08;;;;;;;35.00;13.93;;;;;;;6.44;100.00;99957.38;5061822;28;20028;-74
2023/11/12 09:18:37;;;;;;;32.97;14.00;;;;;;;6.44;100.00;99965.31;4963227;28;20070;-75
2023/11/12 09:21:02;;;;;;;33.35;12.68;;;;;;;6.33;100.00;99963.75;4984987;28;21194;-74
2023/11/12 09:23:28;;;;;;;26.65;11.27;;;;;;;6.95;100.00;100005.25;5003918;28;20070;-77
2023/11/12 09:25:53;;;;;;;32.47;11.57;;;;;;;6.95;100.00;100011.41;4984716;28;20411;-75
2023/11/12 09:28:18;;;;;;;33.67;11.40;;;;;;;6.55;100.00;99980.13;5048180;28;20370;-75
2023/11/12 09:30:44;;;;;;;26.57;11.13;;;;;;;6.54;100.00;99978.47;5001998;28;20050;-75
2023/11/12 09:33:12;;;;;;;27.80;9.75;;;;;;;6.35;100.00;99968.91;4962964;28;20305;-75
2023/11/12 09:35:39;;;;;;;25.25;11.45;;;;;;;6.45;100.00;99982.06;4962331;28;20023;-75
2023/11/12 09:38:04;;;;;;;30.13;12.40;;;;;;;6.59;100.00;99984.16;5002167;28;20030;-75
2023/11/12 09:40:31;;;;;;;24.00;10.77;;;;;;;6.65;100.00;99988.84;4970254;28;20026;-75
2023/11/12 09:42:57;;;;;;;25.17;10.07;;;;;;;6.59;100.00;99981.50;4960662;28;20081;-74
2023/11/12 09:45:24;;;;;;;23.80;11.15;;;;;;;6.39;100.00;99977.38;4964002;28;20953;-75
2023/11/12 09:47:53;;;;;;;22.98;11.00;;;;;;;6.60;100.00;99993.75;4968979;28;20153;-75
2023/11/12 09:50:20;;;;;;;23.83;11.43;;;;;;;6.58;100.00;99987.81;4962125;28;20021;-75
2023/11/12 09:52:47;;;;;;;23.15;11.10;;;;;;;6.64;100.00;99992.47;4954536;28;20080;-75
2023/11/12 09:55:17;;;;;;;29.48;12.93;;;;;;;6.85;100.00;100002.72;4974131;28;20118;-76
2023/11/12 09:57:43;;;;;;;23.13;10.68;;;;;;;6.85;100.00;99989.44;4958515;28;20499;-75
2023/11/12 10:00:12;;;;;;;25.13;11.75;;;;;;;6.66;100.00;99977.22;4962867;28;20042;-75
2023/11/12 10:02:38;;;;;;;25.58;12.23;;;;;;;6.75;100.00;99981.59;4953936;28;20030;-77
2023/11/12 10:05:10;;;;;;;37.60;13.45;;;;;;;6.84;100.00;99993.09;4957771;28;20035;-76
2023/11/12 10:07:36;;;;;;;28.55;11.65;;;;;;;7.03;100.00;99991.22;4961611;28;20039;-75
2023/11/12 10:10:24;;;;;;;25.10;11.90;;;;;;;7.05;100.00;99994.56;4948490;28;20061;-75
2023/11/12 10:12:52;;;;;;;31.25;12.38;;;;;;;7.14;100.00;99998.88;4971395;28;20047;-75
2023/11/12 10:15:25;;;;;;;28.83;12.90;;;;;;;7.07;100.00;99985.44;4965524;28;20022;-76
2023/11/12 10:17:54;;;;;;;29.23;14.45;;;;;;;7.19;100.00;99989.47;4956827;28;20027;-75
2023/11/12 10:20:19;;;;;;;30.77;14.02;;;;;;;7.03;100.00;99976.13;4961634;28;20026;-75
2023/11/12 10:22:45;;;;;;;31.67;13.77;;;;;;;6.95;100.00;99973.41;4952128;28;20061;-75
2023/11/12 10:25:10;;;;;;;21.75;11.68;;;;;;;7.17;100.00;99985.31;4977542;28;20031;-76
2023/11/12 10:27:52;;;;;;;26.52;13.95;;;;;;;7.26;100.00;99991.47;4962893;28;20060;-76
2023/11/12 10:30:19;;;;;;;27.65;12.40;;;;;;;7.35;100.00;99990.50;4976132;28;20041;-76
2023/11/12 10:32:45;;;;;;;23.58;12.93;;;;;;;7.62;100.00;100002.75;4959051;28;20026;-75
2023/11/12 10:35:10;;;;;;;37.65;11.18;;;;;;;7.41;100.00;99979.25;4960050;28;20446;-76
2023/11/12 10:37:56;;;;;;;25.00;11.90;;;;;;;7.19;100.00;99976.19;4944076;28;20031;-76
2023/11/12 10:40:22;;;;;;;20.13;11.00;;;;;;;7.41;100.00;99984.56;4962229;28;20475;-75
2023/11/12 10:42:47;;;;;;;21.75;11.15;;;;;;;7.53;100.00;99983.28;4963228;28;20035;-75
2023/11/12 10:45:16;;;;;;;26.10;12.27;;;;;;;7.54;100.00;99973.50;4982504;28;20043;-75
2023/11/12 10:47:46;;;;;;;21.63;12.05;;;;;;;7.53;100.00;99975.31;4957266;28;20022;-75
2023/11/12 10:50:15;;;;;;;19.73;9.63;;;;;;;7.39;100.00;99975.94;4950865;23;20062;-77
2023/11/12 10:52:42;;;;;;;22.50;11.55;;;;;;;7.49;100.00;99975.78;4928491;28;20028;-77
2023/11/12 10:55:09;;;;;;;18.52;10.00;;;;;;;7.32;100.00;99958.97;4929744;28;20082;-77
2023/11/12 10:57:35;;;;;;;19.08;11.18;;;;;;;7.21;100.00;99954.81;4928929;28;20059;-76
2023/11/12 11:00:05;;;;;;;;;;;;;;;7.33;100.00;99956.19;4925124;29;20031;-75
2023/11/12 11:02:36;;;;;;;19.67;9.60;;;;;;;7.38;100.00;99958.34;4945096;28;19922;-77
2023/11/12 11:05:01;;;;;;;17.35;8.90;;;;;;;7.06;100.00;99933.31;4925591;28;20031;-78
2023/11/12 11:07:28;;;;;;;21.10;10.63;;;;;;;7.16;100.00;99952.63;4920002;29;20698;-78
2023/11/12 11:09:54;;;;;;;17.00;9.53;;;;;;;7.06;100.00;99943.13;4928506;28;20085;-78
2023/11/12 11:12:20;;;;;;;17.85;10.10;;;;;;;7.21;100.00;99946.84;4927272;29;20271;-77
2023/11/12 11:14:46;;;;;;;;;;;;;;;7.35;100.00;99953.34;4925109;29;20043;-77
2023/11/12 11:17:34;;;;;;;25.08;9.00;;;;;;;7.36;100.00;99960.34;4929211;28;19911;-77